KLM1054 EGLL-EDDF
Flight info
| Callsign | KLM1054 |
|---|---|
| Flight time | 1h 14m |
| Altitude | 35000 |
| Route | BPK Q295 MATCH DCT REDFA DCT TACHA DCT NOLRU DCT DIXAT DIXAT1A |
| Aircraft | A333/H-SDE3GHIJ2J3J5M1RVWXY/LB2D1 |
Departure
| Time | 2026-05-04 22:24 |
|---|---|
| Airport | London Heathrow Airport (EGLL) |
Arrival
| Time | 2026-05-04 23:38 |
|---|---|
| Airport | Frankfurt Main Airport (EDDF) |
| Time | Latitude | Longitude | Altitude | Speed | Heading |
|---|---|---|---|---|---|
| 2026-05-04 21:49 | 51.45754 | -0.45038 | 90 ft | 0 kts | 332° |
| 2026-05-04 22:08 | 51.45737 | -0.45020 | 89 ft | 4 kts | 316° |
| 2026-05-04 22:09 | 51.45721 | -0.44987 | 90 ft | 4 kts | 291° |
| 2026-05-04 22:09 | 51.45715 | -0.44946 | 89 ft | 4 kts | 269° |
| 2026-05-04 22:09 | 51.45718 | -0.44904 | 89 ft | 4 kts | 253° |
| 2026-05-04 22:09 | 51.45726 | -0.44868 | 91 ft | 1 kts | 241° |
| 2026-05-04 22:10 | 51.45727 | -0.44868 | 91 ft | 1 kts | 241° |
| 2026-05-04 22:12 | 51.45726 | -0.44869 | 90 ft | 1 kts | 241° |
| 2026-05-04 22:13 | 51.45718 | -0.44893 | 94 ft | 4 kts | 241° |
| 2026-05-04 22:13 | 51.45700 | -0.44943 | 92 ft | 7 kts | 240° |
| 2026-05-04 22:13 | 51.45679 | -0.45035 | 93 ft | 10 kts | 258° |
| 2026-05-04 22:13 | 51.45674 | -0.45165 | 93 ft | 13 kts | 278° |
| 2026-05-04 22:14 | 51.45724 | -0.45293 | 94 ft | 14 kts | 322° |
| 2026-05-04 22:14 | 51.45816 | -0.45333 | 92 ft | 15 kts | 360° |
| 2026-05-04 22:14 | 51.45919 | -0.45330 | 90 ft | 15 kts | 2° |
| 2026-05-04 22:14 | 51.46031 | -0.45325 | 90 ft | 17 kts | 0° |
| 2026-05-04 22:15 | 51.46136 | -0.45392 | 95 ft | 16 kts | 326° |
| 2026-05-04 22:15 | 51.46232 | -0.45498 | 94 ft | 18 kts | 325° |
| 2026-05-04 22:15 | 51.46316 | -0.45626 | 93 ft | 16 kts | 291° |
| 2026-05-04 22:15 | 51.46326 | -0.45819 | 93 ft | 19 kts | 270° |
| 2026-05-04 22:16 | 51.46325 | -0.46037 | 90 ft | 20 kts | 269° |
| 2026-05-04 22:16 | 51.46323 | -0.46275 | 90 ft | 22 kts | 269° |
| 2026-05-04 22:16 | 51.46321 | -0.46512 | 92 ft | 21 kts | 269° |
| 2026-05-04 22:16 | 51.46321 | -0.46753 | 92 ft | 22 kts | 271° |
| 2026-05-04 22:17 | 51.46323 | -0.47002 | 90 ft | 23 kts | 269° |
| 2026-05-04 22:17 | 51.46321 | -0.47247 | 93 ft | 22 kts | 269° |
| 2026-05-04 22:17 | 51.46339 | -0.47481 | 91 ft | 20 kts | 274° |
| 2026-05-04 22:17 | 51.46312 | -0.47709 | 93 ft | 22 kts | 242° |
| 2026-05-04 22:18 | 51.46254 | -0.47929 | 92 ft | 20 kts | 263° |
| 2026-05-04 22:18 | 51.46251 | -0.48142 | 90 ft | 20 kts | 270° |
| 2026-05-04 22:18 | 51.46251 | -0.48373 | 87 ft | 20 kts | 268° |
| 2026-05-04 22:18 | 51.46252 | -0.48565 | 88 ft | 15 kts | 277° |
| 2026-05-04 22:19 | 51.46291 | -0.48685 | 90 ft | 6 kts | 314° |
| 2026-05-04 22:19 | 51.46295 | -0.48691 | 91 ft | 0 kts | 317° |
| 2026-05-04 22:20 | 51.46296 | -0.48693 | 91 ft | 1 kts | 317° |
| 2026-05-04 22:21 | 51.46312 | -0.48712 | 90 ft | 4 kts | 327° |
| 2026-05-04 22:21 | 51.46341 | -0.48734 | 91 ft | 5 kts | 340° |
| 2026-05-04 22:21 | 51.46371 | -0.48745 | 91 ft | 4 kts | 350° |
| 2026-05-04 22:21 | 51.46396 | -0.48749 | 92 ft | 4 kts | 354° |
| 2026-05-04 22:22 | 51.46423 | -0.48751 | 93 ft | 4 kts | 0° |
| 2026-05-04 22:22 | 51.46454 | -0.48734 | 94 ft | 5 kts | 30° |
| 2026-05-04 22:22 | 51.46474 | -0.48679 | 93 ft | 7 kts | 73° |
| 2026-05-04 22:22 | 51.46478 | -0.48611 | 91 ft | 0 kts | 88° |
| 2026-05-04 22:23 | 51.46478 | -0.48594 | 93 ft | 8 kts | 88° |
| 2026-05-04 22:23 | 51.46480 | -0.48364 | 91 ft | 42 kts | 89° |
| 2026-05-04 22:24 | 51.46484 | -0.47426 | 88 ft | 123 kts | 90° |
| 2026-05-04 22:24 | 51.46488 | -0.45733 | 314 ft | 172 kts | 90° |
| 2026-05-04 22:24 | 51.46506 | -0.43683 | 1011 ft | 196 kts | 83° |
| 2026-05-04 22:24 | 51.46874 | -0.41461 | 1852 ft | 218 kts | 66° |
| 2026-05-04 22:25 | 51.47678 | -0.39277 | 2766 ft | 237 kts | 53° |
| 2026-05-04 22:25 | 51.48829 | -0.37313 | 3744 ft | 240 kts | 44° |
| 2026-05-04 22:25 | 51.50017 | -0.35382 | 4334 ft | 250 kts | 50° |
| 2026-05-04 22:25 | 51.50774 | -0.32808 | 5016 ft | 263 kts | 75° |
| 2026-05-04 22:26 | 51.51118 | -0.29880 | 5660 ft | 268 kts | 81° |
| 2026-05-04 22:26 | 51.51402 | -0.26878 | 6396 ft | 275 kts | 81° |
| 2026-05-04 22:26 | 51.51692 | -0.23804 | 7232 ft | 280 kts | 81° |
| 2026-05-04 22:26 | 51.51987 | -0.20738 | 8174 ft | 281 kts | 81° |
| 2026-05-04 22:27 | 51.52311 | -0.17621 | 9097 ft | 285 kts | 76° |
| 2026-05-04 22:27 | 51.53153 | -0.14725 | 9967 ft | 290 kts | 52° |
| 2026-05-04 22:27 | 51.54558 | -0.12345 | 10580 ft | 302 kts | 43° |
| 2026-05-04 22:27 | 51.56188 | -0.09999 | 10924 ft | 324 kts | 41° |
| 2026-05-04 22:28 | 51.57936 | -0.07540 | 11247 ft | 345 kts | 41° |
| 2026-05-04 22:28 | 51.59789 | -0.04929 | 11623 ft | 361 kts | 41° |
| 2026-05-04 22:28 | 51.61678 | -0.02272 | 12249 ft | 367 kts | 41° |
| 2026-05-04 22:28 | 51.63618 | 0.00444 | 13020 ft | 370 kts | 41° |
| 2026-05-04 22:29 | 51.65573 | 0.03167 | 13775 ft | 373 kts | 41° |
| 2026-05-04 22:29 | 51.67562 | 0.05902 | 14392 ft | 378 kts | 38° |
| 2026-05-04 22:29 | 51.69875 | 0.07914 | 14860 ft | 382 kts | 18° |
| 2026-05-04 22:29 | 51.72444 | 0.08468 | 15083 ft | 384 kts | 356° |
| 2026-05-04 22:30 | 51.74186 | 0.07957 | 15340 ft | 388 kts | 342° |
| 2026-05-04 22:30 | 51.76677 | 0.06237 | 15964 ft | 391 kts | 337° |
| 2026-05-04 22:30 | 51.79328 | 0.05210 | 16549 ft | 396 kts | 358° |
| 2026-05-04 22:30 | 51.82061 | 0.05792 | 17168 ft | 400 kts | 18° |
| 2026-05-04 22:31 | 51.84530 | 0.07889 | 17730 ft | 406 kts | 38° |
| 2026-05-04 22:31 | 51.86427 | 0.11270 | 18301 ft | 410 kts | 58° |
| 2026-05-04 22:31 | 51.87513 | 0.15524 | 18837 ft | 411 kts | 78° |
| 2026-05-04 22:31 | 51.87712 | 0.20146 | 19352 ft | 413 kts | 94° |
| 2026-05-04 22:32 | 51.87430 | 0.24778 | 19904 ft | 414 kts | 99° |
| 2026-05-04 22:32 | 51.87004 | 0.29366 | 20418 ft | 417 kts | 100° |
| 2026-05-04 22:32 | 51.86581 | 0.34025 | 20921 ft | 420 kts | 99° |
| 2026-05-04 22:32 | 51.86225 | 0.38722 | 21424 ft | 423 kts | 97° |
| 2026-05-04 22:33 | 51.85943 | 0.43468 | 21931 ft | 426 kts | 96° |
| 2026-05-04 22:33 | 51.85716 | 0.48276 | 22409 ft | 429 kts | 95° |
| 2026-05-04 22:33 | 51.85522 | 0.53107 | 22765 ft | 434 kts | 95° |
| 2026-05-04 22:33 | 51.85341 | 0.58009 | 23186 ft | 438 kts | 95° |
| 2026-05-04 22:34 | 51.85163 | 0.62953 | 23649 ft | 441 kts | 95° |
| 2026-05-04 22:34 | 51.84981 | 0.67910 | 24027 ft | 444 kts | 95° |
| 2026-05-04 22:34 | 51.84792 | 0.72909 | 24397 ft | 446 kts | 95° |
| 2026-05-04 22:34 | 51.84596 | 0.77937 | 24773 ft | 449 kts | 95° |
| 2026-05-04 22:35 | 51.84395 | 0.82993 | 25148 ft | 452 kts | 95° |
| 2026-05-04 22:35 | 51.84188 | 0.88089 | 25505 ft | 454 kts | 96° |
| 2026-05-04 22:35 | 51.83977 | 0.93206 | 25862 ft | 457 kts | 96° |
| 2026-05-04 22:35 | 51.83765 | 0.98292 | 26200 ft | 460 kts | 96° |
| 2026-05-04 22:36 | 51.83544 | 1.03525 | 26600 ft | 461 kts | 96° |
| 2026-05-04 22:36 | 51.83324 | 1.08691 | 26957 ft | 463 kts | 96° |
| 2026-05-04 22:36 | 51.83250 | 1.10426 | 27079 ft | 464 kts | 96° |
| 2026-05-04 22:36 | 51.83188 | 1.11873 | 27173 ft | 465 kts | 96° |
| 2026-05-04 22:37 | 51.82962 | 1.17099 | 27508 ft | 467 kts | 96° |
| 2026-05-04 22:37 | 51.82733 | 1.22360 | 27854 ft | 469 kts | 96° |
| 2026-05-04 22:37 | 51.82501 | 1.27642 | 28178 ft | 472 kts | 96° |
| 2026-05-04 22:37 | 51.82264 | 1.32954 | 28524 ft | 474 kts | 96° |
| 2026-05-04 22:38 | 51.82025 | 1.38282 | 28846 ft | 476 kts | 96° |
| 2026-05-04 22:38 | 51.81781 | 1.43633 | 29167 ft | 478 kts | 96° |
| 2026-05-04 22:38 | 51.81535 | 1.49000 | 29477 ft | 480 kts | 96° |
| 2026-05-04 22:38 | 51.81285 | 1.54394 | 29786 ft | 482 kts | 96° |
| 2026-05-04 22:39 | 51.81032 | 1.59805 | 30091 ft | 484 kts | 96° |
| 2026-05-04 22:39 | 51.80778 | 1.65176 | 30347 ft | 486 kts | 96° |
| 2026-05-04 22:39 | 51.80516 | 1.70652 | 30596 ft | 488 kts | 96° |
| 2026-05-04 22:39 | 51.80253 | 1.76128 | 30942 ft | 487 kts | 96° |
| 2026-05-04 22:40 | 51.79987 | 1.81588 | 31330 ft | 486 kts | 96° |
| 2026-05-04 22:40 | 51.79720 | 1.87042 | 31704 ft | 485 kts | 96° |
| 2026-05-04 22:40 | 51.79451 | 1.92468 | 32065 ft | 484 kts | 96° |
| 2026-05-04 22:40 | 51.79180 | 1.97872 | 32408 ft | 483 kts | 96° |
| 2026-05-04 22:41 | 51.78906 | 2.03288 | 32832 ft | 481 kts | 96° |
| 2026-05-04 22:41 | 51.78635 | 2.08603 | 33145 ft | 481 kts | 96° |
| 2026-05-04 22:41 | 51.78355 | 2.14043 | 33514 ft | 480 kts | 96° |
| 2026-05-04 22:41 | 51.78079 | 2.19362 | 33815 ft | 480 kts | 96° |
| 2026-05-04 22:42 | 51.77797 | 2.24735 | 34122 ft | 479 kts | 96° |
| 2026-05-04 22:42 | 51.77514 | 2.30094 | 34416 ft | 478 kts | 96° |
| 2026-05-04 22:42 | 51.77228 | 2.35457 | 34628 ft | 479 kts | 96° |
| 2026-05-04 22:42 | 51.76940 | 2.40817 | 34891 ft | 479 kts | 97° |
| 2026-05-04 22:43 | 51.76649 | 2.46176 | 35015 ft | 481 kts | 97° |
| 2026-05-04 22:43 | 51.76059 | 2.56941 | 35021 ft | 481 kts | 97° |
| 2026-05-04 22:44 | 51.75458 | 2.67708 | 35021 ft | 481 kts | 97° |
| 2026-05-04 22:44 | 51.74851 | 2.78390 | 35011 ft | 481 kts | 97° |
| 2026-05-04 22:45 | 51.74231 | 2.89138 | 35013 ft | 481 kts | 97° |
| 2026-05-04 22:45 | 51.73278 | 3.05307 | 35013 ft | 486 kts | 97° |
| 2026-05-04 22:46 | 51.72628 | 3.16129 | 35012 ft | 483 kts | 97° |
| 2026-05-04 22:46 | 51.71976 | 3.26834 | 35012 ft | 482 kts | 97° |
| 2026-05-04 22:47 | 51.71309 | 3.37603 | 35005 ft | 482 kts | 98° |
| 2026-05-04 22:47 | 51.70632 | 3.48367 | 35001 ft | 480 kts | 97° |
| 2026-05-04 22:48 | 51.69950 | 3.59068 | 34995 ft | 480 kts | 97° |
| 2026-05-04 22:48 | 51.69257 | 3.69766 | 34980 ft | 480 kts | 97° |
| 2026-05-04 22:49 | 51.68559 | 3.80395 | 34980 ft | 480 kts | 97° |
| 2026-05-04 22:49 | 51.67848 | 3.91086 | 34973 ft | 480 kts | 98° |
| 2026-05-04 22:50 | 51.67126 | 4.01784 | 34969 ft | 480 kts | 98° |
| 2026-05-04 22:50 | 51.66394 | 4.12474 | 34968 ft | 480 kts | 98° |
| 2026-05-04 22:51 | 51.65653 | 4.23155 | 34964 ft | 480 kts | 98° |
| 2026-05-04 22:51 | 51.64902 | 4.33840 | 34963 ft | 480 kts | 98° |
| 2026-05-04 22:52 | 51.64142 | 4.44525 | 34961 ft | 480 kts | 98° |
| 2026-05-04 22:52 | 51.63376 | 4.55139 | 34961 ft | 480 kts | 98° |
| 2026-05-04 22:53 | 51.62596 | 4.65809 | 34958 ft | 480 kts | 98° |
| 2026-05-04 22:53 | 51.61807 | 4.76481 | 34964 ft | 480 kts | 98° |
| 2026-05-04 22:54 | 51.61007 | 4.87148 | 34971 ft | 480 kts | 98° |
| 2026-05-04 22:54 | 51.60203 | 4.97773 | 34964 ft | 480 kts | 98° |
| 2026-05-04 22:55 | 51.59394 | 5.08454 | 34965 ft | 480 kts | 99° |
| 2026-05-04 22:55 | 51.58571 | 5.19122 | 34961 ft | 480 kts | 99° |
| 2026-05-04 22:56 | 51.57736 | 5.29761 | 34966 ft | 480 kts | 99° |
| 2026-05-04 22:56 | 51.56893 | 5.40351 | 34963 ft | 480 kts | 99° |
| 2026-05-04 22:57 | 51.56036 | 5.50986 | 34961 ft | 479 kts | 100° |
| 2026-05-04 22:57 | 51.55171 | 5.61610 | 34952 ft | 479 kts | 100° |
| 2026-05-04 22:58 | 51.54294 | 5.72244 | 34964 ft | 479 kts | 100° |
| 2026-05-04 22:58 | 51.53411 | 5.82846 | 34965 ft | 479 kts | 100° |
| 2026-05-04 22:59 | 51.52518 | 5.93449 | 34962 ft | 478 kts | 101° |
| 2026-05-04 22:59 | 51.51616 | 6.04033 | 34966 ft | 478 kts | 101° |
| 2026-05-04 23:00 | 51.50711 | 6.14535 | 34966 ft | 478 kts | 101° |
| 2026-05-04 23:00 | 51.49181 | 6.24845 | 34961 ft | 473 kts | 112° |
| 2026-05-04 23:01 | 51.46843 | 6.34710 | 34960 ft | 472 kts | 115° |
| 2026-05-04 23:01 | 51.44438 | 6.44517 | 34953 ft | 472 kts | 115° |
| 2026-05-04 23:02 | 51.42035 | 6.54248 | 34949 ft | 472 kts | 115° |
| 2026-05-04 23:02 | 51.39610 | 6.64026 | 34944 ft | 472 kts | 115° |
| 2026-05-04 23:03 | 51.37176 | 6.73793 | 34934 ft | 472 kts | 116° |
| 2026-05-04 23:03 | 51.34741 | 6.83524 | 34947 ft | 471 kts | 116° |
| 2026-05-04 23:04 | 51.32300 | 6.93233 | 34965 ft | 471 kts | 116° |
| 2026-05-04 23:04 | 51.29847 | 7.02948 | 34963 ft | 471 kts | 116° |
| 2026-05-04 23:05 | 51.26837 | 7.12044 | 34543 ft | 464 kts | 132° |
| 2026-05-04 23:05 | 51.24658 | 7.15787 | 33794 ft | 459 kts | 143° |
| 2026-05-04 23:05 | 51.22093 | 7.18758 | 32829 ft | 455 kts | 154° |
| 2026-05-04 23:06 | 51.19284 | 7.21130 | 31919 ft | 456 kts | 158° |
| 2026-05-04 23:06 | 51.16426 | 7.23363 | 31019 ft | 459 kts | 158° |
| 2026-05-04 23:06 | 51.13545 | 7.25601 | 30120 ft | 461 kts | 158° |
| 2026-05-04 23:06 | 51.10654 | 7.27894 | 29094 ft | 464 kts | 156° |
| 2026-05-04 23:07 | 51.07782 | 7.30239 | 28213 ft | 463 kts | 156° |
| 2026-05-04 23:07 | 51.04929 | 7.32586 | 27489 ft | 459 kts | 156° |
| 2026-05-04 23:07 | 51.02114 | 7.34906 | 26781 ft | 454 kts | 156° |
| 2026-05-04 23:07 | 50.99349 | 7.37184 | 26073 ft | 450 kts | 155° |
| 2026-05-04 23:08 | 50.96549 | 7.39487 | 25377 ft | 446 kts | 155° |
| 2026-05-04 23:08 | 50.93799 | 7.41746 | 24698 ft | 442 kts | 155° |
| 2026-05-04 23:08 | 50.91076 | 7.43978 | 24032 ft | 439 kts | 155° |
| 2026-05-04 23:08 | 50.88408 | 7.46163 | 23350 ft | 435 kts | 155° |
| 2026-05-04 23:09 | 50.85730 | 7.48353 | 22602 ft | 431 kts | 155° |
| 2026-05-04 23:09 | 50.83074 | 7.50523 | 21860 ft | 427 kts | 155° |
| 2026-05-04 23:09 | 50.80450 | 7.52663 | 21156 ft | 422 kts | 155° |
| 2026-05-04 23:09 | 50.77853 | 7.54780 | 20442 ft | 419 kts | 155° |
| 2026-05-04 23:10 | 50.75275 | 7.56877 | 19735 ft | 415 kts | 155° |
| 2026-05-04 23:10 | 50.72720 | 7.58953 | 19056 ft | 411 kts | 155° |
| 2026-05-04 23:10 | 50.70181 | 7.61014 | 18376 ft | 408 kts | 155° |
| 2026-05-04 23:10 | 50.67670 | 7.63049 | 17681 ft | 403 kts | 155° |
| 2026-05-04 23:11 | 50.65184 | 7.65064 | 17027 ft | 398 kts | 155° |
| 2026-05-04 23:11 | 50.62749 | 7.67035 | 16544 ft | 389 kts | 155° |
| 2026-05-04 23:11 | 50.60374 | 7.68954 | 16075 ft | 380 kts | 155° |
| 2026-05-04 23:11 | 50.58036 | 7.70841 | 15629 ft | 375 kts | 155° |
| 2026-05-04 23:12 | 50.55716 | 7.72709 | 15194 ft | 374 kts | 155° |
| 2026-05-04 23:12 | 50.53428 | 7.74548 | 14746 ft | 373 kts | 156° |
| 2026-05-04 23:12 | 50.51116 | 7.76406 | 14305 ft | 371 kts | 156° |
| 2026-05-04 23:12 | 50.48820 | 7.78248 | 13868 ft | 369 kts | 156° |
| 2026-05-04 23:13 | 50.46539 | 7.80079 | 13400 ft | 367 kts | 156° |
| 2026-05-04 23:13 | 50.44300 | 7.81903 | 12950 ft | 365 kts | 153° |
| 2026-05-04 23:13 | 50.42253 | 7.84062 | 12617 ft | 365 kts | 146° |
| 2026-05-04 23:13 | 50.40275 | 7.86472 | 12298 ft | 364 kts | 144° |
| 2026-05-04 23:14 | 50.38305 | 7.88929 | 11951 ft | 362 kts | 144° |
| 2026-05-04 23:14 | 50.36341 | 7.91379 | 11647 ft | 356 kts | 144° |
| 2026-05-04 23:14 | 50.34442 | 7.93747 | 11418 ft | 342 kts | 144° |
| 2026-05-04 23:14 | 50.32601 | 7.96034 | 11122 ft | 333 kts | 144° |
| 2026-05-04 23:15 | 50.30810 | 7.98252 | 10807 ft | 324 kts | 145° |
| 2026-05-04 23:15 | 50.29063 | 8.00411 | 10502 ft | 316 kts | 145° |
| 2026-05-04 23:15 | 50.27355 | 8.02523 | 10207 ft | 309 kts | 144° |
| 2026-05-04 23:15 | 50.25836 | 8.04856 | 9988 ft | 303 kts | 134° |
| 2026-05-04 23:16 | 50.24537 | 8.07391 | 9819 ft | 294 kts | 131° |
| 2026-05-04 23:16 | 50.23326 | 8.09862 | 9681 ft | 287 kts | 131° |
| 2026-05-04 23:16 | 50.22114 | 8.12338 | 9615 ft | 287 kts | 131° |
| 2026-05-04 23:16 | 50.20892 | 8.14823 | 9530 ft | 287 kts | 131° |
| 2026-05-04 23:17 | 50.19676 | 8.17292 | 9434 ft | 287 kts | 131° |
| 2026-05-04 23:17 | 50.18462 | 8.19753 | 9339 ft | 287 kts | 131° |
| 2026-05-04 23:17 | 50.17243 | 8.22219 | 9249 ft | 286 kts | 131° |
| 2026-05-04 23:17 | 50.16024 | 8.24682 | 9160 ft | 286 kts | 131° |
| 2026-05-04 23:18 | 50.14809 | 8.27135 | 9058 ft | 285 kts | 131° |
| 2026-05-04 23:18 | 50.13597 | 8.29580 | 8960 ft | 285 kts | 131° |
| 2026-05-04 23:18 | 50.12793 | 8.31200 | 8901 ft | 284 kts | 131° |
| 2026-05-04 23:18 | 50.11582 | 8.33639 | 8830 ft | 283 kts | 131° |
| 2026-05-04 23:19 | 50.10370 | 8.37247 | 8700 ft | 289 kts | 106° |
| 2026-05-04 23:19 | 50.10381 | 8.40393 | 8605 ft | 296 kts | 79° |
| 2026-05-04 23:19 | 50.11004 | 8.43454 | 8510 ft | 298 kts | 72° |
| 2026-05-04 23:19 | 50.11505 | 8.45498 | 8434 ft | 299 kts | 71° |
| 2026-05-04 23:20 | 50.12248 | 8.48475 | 8339 ft | 298 kts | 71° |
| 2026-05-04 23:20 | 50.12993 | 8.51492 | 8233 ft | 298 kts | 71° |
| 2026-05-04 23:20 | 50.13728 | 8.54508 | 8142 ft | 298 kts | 71° |
| 2026-05-04 23:20 | 50.14457 | 8.57533 | 8049 ft | 297 kts | 71° |
| 2026-05-04 23:21 | 50.15181 | 8.60554 | 7952 ft | 296 kts | 71° |
| 2026-05-04 23:21 | 50.15899 | 8.63562 | 7845 ft | 296 kts | 72° |
| 2026-05-04 23:21 | 50.16614 | 8.66564 | 7770 ft | 295 kts | 72° |
| 2026-05-04 23:21 | 50.17329 | 8.69570 | 7662 ft | 295 kts | 72° |
| 2026-05-04 23:22 | 50.18042 | 8.72573 | 7548 ft | 294 kts | 72° |
| 2026-05-04 23:22 | 50.18751 | 8.75565 | 7483 ft | 294 kts | 72° |
| 2026-05-04 23:22 | 50.19458 | 8.78558 | 7385 ft | 294 kts | 72° |
| 2026-05-04 23:22 | 50.20163 | 8.81546 | 7288 ft | 293 kts | 72° |
| 2026-05-04 23:23 | 50.20867 | 8.84533 | 7186 ft | 293 kts | 72° |
| 2026-05-04 23:23 | 50.21559 | 8.87478 | 7100 ft | 292 kts | 72° |
| 2026-05-04 23:23 | 50.22259 | 8.90453 | 7013 ft | 292 kts | 72° |
| 2026-05-04 23:23 | 50.22958 | 8.93436 | 6911 ft | 291 kts | 72° |
| 2026-05-04 23:24 | 50.23652 | 8.96403 | 6820 ft | 291 kts | 72° |
| 2026-05-04 23:24 | 50.24346 | 8.99372 | 6738 ft | 291 kts | 72° |
| 2026-05-04 23:24 | 50.25039 | 9.02340 | 6632 ft | 290 kts | 72° |
| 2026-05-04 23:24 | 50.25730 | 9.05307 | 6531 ft | 290 kts | 72° |
| 2026-05-04 23:25 | 50.26418 | 9.08259 | 6452 ft | 289 kts | 72° |
| 2026-05-04 23:25 | 50.27097 | 9.11181 | 6357 ft | 289 kts | 72° |
| 2026-05-04 23:25 | 50.27785 | 9.14144 | 6261 ft | 288 kts | 72° |
| 2026-05-04 23:25 | 50.28467 | 9.17089 | 6162 ft | 288 kts | 72° |
| 2026-05-04 23:26 | 50.29148 | 9.20029 | 6072 ft | 287 kts | 72° |
| 2026-05-04 23:26 | 50.29828 | 9.22972 | 5983 ft | 287 kts | 72° |
| 2026-05-04 23:26 | 50.30505 | 9.25904 | 5886 ft | 285 kts | 71° |
| 2026-05-04 23:26 | 50.31170 | 9.28789 | 5786 ft | 284 kts | 71° |
| 2026-05-04 23:27 | 50.31715 | 9.31743 | 5707 ft | 282 kts | 84° |
| 2026-05-04 23:27 | 50.31561 | 9.34745 | 5614 ft | 276 kts | 111° |
| 2026-05-04 23:27 | 50.30556 | 9.37222 | 5528 ft | 269 kts | 139° |
| 2026-05-04 23:27 | 50.28989 | 9.38732 | 5440 ft | 265 kts | 159° |
| 2026-05-04 23:28 | 50.27254 | 9.39711 | 5354 ft | 264 kts | 167° |
| 2026-05-04 23:28 | 50.25440 | 9.39987 | 5270 ft | 261 kts | 187° |
| 2026-05-04 23:28 | 50.23737 | 9.39088 | 5191 ft | 260 kts | 212° |
| 2026-05-04 23:28 | 50.22457 | 9.37109 | 5087 ft | 260 kts | 238° |
| 2026-05-04 23:29 | 50.21711 | 9.34569 | 5023 ft | 262 kts | 248° |
| 2026-05-04 23:29 | 50.21105 | 9.31889 | 4936 ft | 263 kts | 250° |
| 2026-05-04 23:29 | 50.20514 | 9.29196 | 4879 ft | 259 kts | 250° |
| 2026-05-04 23:29 | 50.19931 | 9.26585 | 4760 ft | 249 kts | 249° |
| 2026-05-04 23:30 | 50.19362 | 9.24071 | 4586 ft | 241 kts | 249° |
| 2026-05-04 23:30 | 50.18810 | 9.21651 | 4507 ft | 235 kts | 249° |
| 2026-05-04 23:30 | 50.18235 | 9.19257 | 4469 ft | 235 kts | 246° |
| 2026-05-04 23:30 | 50.17706 | 9.16869 | 4436 ft | 235 kts | 252° |
| 2026-05-04 23:31 | 50.17242 | 9.14454 | 4384 ft | 227 kts | 251° |
| 2026-05-04 23:31 | 50.16770 | 9.12144 | 4310 ft | 221 kts | 250° |
| 2026-05-04 23:31 | 50.16268 | 9.09890 | 4240 ft | 218 kts | 249° |
| 2026-05-04 23:31 | 50.15752 | 9.07665 | 4156 ft | 218 kts | 248° |
| 2026-05-04 23:32 | 50.15220 | 9.05470 | 4132 ft | 219 kts | 247° |
| 2026-05-04 23:32 | 50.14659 | 9.03261 | 4086 ft | 219 kts | 248° |
| 2026-05-04 23:32 | 50.14114 | 9.01047 | 3983 ft | 218 kts | 248° |
| 2026-05-04 23:32 | 50.13577 | 8.98834 | 3966 ft | 219 kts | 248° |
| 2026-05-04 23:33 | 50.13045 | 8.96614 | 3970 ft | 219 kts | 248° |
| 2026-05-04 23:33 | 50.12524 | 8.94417 | 3970 ft | 219 kts | 249° |
| 2026-05-04 23:33 | 50.11999 | 8.92194 | 3969 ft | 219 kts | 249° |
| 2026-05-04 23:33 | 50.11480 | 8.89984 | 3961 ft | 211 kts | 249° |
| 2026-05-04 23:34 | 50.10987 | 8.87889 | 3962 ft | 203 kts | 249° |
| 2026-05-04 23:34 | 50.10500 | 8.85823 | 3965 ft | 203 kts | 249° |
| 2026-05-04 23:34 | 50.10007 | 8.83747 | 3681 ft | 206 kts | 249° |
| 2026-05-04 23:34 | 50.09502 | 8.81631 | 3393 ft | 210 kts | 249° |
| 2026-05-04 23:35 | 50.08989 | 8.79489 | 3091 ft | 212 kts | 249° |
| 2026-05-04 23:35 | 50.08472 | 8.77333 | 2805 ft | 213 kts | 249° |
| 2026-05-04 23:35 | 50.07963 | 8.75206 | 2523 ft | 207 kts | 250° |
| 2026-05-04 23:35 | 50.07473 | 8.73160 | 2186 ft | 197 kts | 250° |
| 2026-05-04 23:36 | 50.07004 | 8.71195 | 1898 ft | 187 kts | 250° |
| 2026-05-04 23:36 | 50.06550 | 8.69295 | 1746 ft | 187 kts | 250° |
| 2026-05-04 23:36 | 50.06106 | 8.67434 | 1603 ft | 180 kts | 250° |
| 2026-05-04 23:36 | 50.05685 | 8.65701 | 1434 ft | 163 kts | 249° |
| 2026-05-04 23:37 | 50.05292 | 8.64120 | 1168 ft | 152 kts | 250° |
| 2026-05-04 23:37 | 50.04933 | 8.62616 | 900 ft | 145 kts | 251° |
| 2026-05-04 23:37 | 50.04590 | 8.61179 | 665 ft | 139 kts | 251° |
| 2026-05-04 23:37 | 50.04258 | 8.59775 | 471 ft | 138 kts | 252° |
| 2026-05-04 23:38 | 50.03930 | 8.58360 | 366 ft | 141 kts | 251° |
| 2026-05-04 23:38 | 50.03632 | 8.57086 | 357 ft | 84 kts | 250° |
| 2026-05-04 23:38 | 50.03488 | 8.56486 | 357 ft | 52 kts | 250° |
| 2026-05-04 23:38 | 50.03433 | 8.56091 | 356 ft | 25 kts | 279° |
| 2026-05-04 23:39 | 50.03460 | 8.55855 | 353 ft | 18 kts | 279° |
| 2026-05-04 23:39 | 50.03482 | 8.55655 | 355 ft | 19 kts | 279° |
| 2026-05-04 23:39 | 50.03488 | 8.55461 | 354 ft | 17 kts | 256° |
| 2026-05-04 23:39 | 50.03447 | 8.55282 | 358 ft | 18 kts | 248° |
| 2026-05-04 23:40 | 50.03400 | 8.55093 | 359 ft | 19 kts | 250° |
| 2026-05-04 23:40 | 50.03352 | 8.54888 | 354 ft | 21 kts | 250° |
| 2026-05-04 23:40 | 50.03300 | 8.54670 | 359 ft | 22 kts | 250° |
| 2026-05-04 23:40 | 50.03246 | 8.54439 | 358 ft | 23 kts | 250° |
| 2026-05-04 23:41 | 50.03188 | 8.54196 | 359 ft | 24 kts | 249° |
| 2026-05-04 23:41 | 50.03129 | 8.53956 | 357 ft | 24 kts | 249° |
| 2026-05-04 23:41 | 50.03074 | 8.53716 | 358 ft | 22 kts | 257° |
| 2026-05-04 23:41 | 50.03132 | 8.53578 | 359 ft | 15 kts | 334° |
| 2026-05-04 23:42 | 50.03235 | 8.53516 | 356 ft | 17 kts | 340° |
| 2026-05-04 23:42 | 50.03325 | 8.53402 | 359 ft | 17 kts | 308° |
| 2026-05-04 23:42 | 50.03423 | 8.53316 | 357 ft | 16 kts | 355° |
| 2026-05-04 23:42 | 50.03533 | 8.53366 | 359 ft | 17 kts | 24° |
| 2026-05-04 23:43 | 50.03617 | 8.53470 | 358 ft | 15 kts | 64° |
| 2026-05-04 23:43 | 50.03656 | 8.53624 | 356 ft | 16 kts | 69° |
| 2026-05-04 23:43 | 50.03697 | 8.53788 | 357 ft | 17 kts | 69° |
| 2026-05-04 23:43 | 50.03740 | 8.53962 | 356 ft | 18 kts | 69° |
| 2026-05-04 23:44 | 50.03784 | 8.54144 | 357 ft | 19 kts | 70° |
| 2026-05-04 23:44 | 50.03841 | 8.54324 | 356 ft | 18 kts | 56° |
| 2026-05-04 23:44 | 50.03898 | 8.54507 | 357 ft | 19 kts | 70° |
| 2026-05-04 23:44 | 50.03944 | 8.54707 | 355 ft | 20 kts | 70° |
| 2026-05-04 23:45 | 50.03994 | 8.54913 | 355 ft | 21 kts | 69° |
| 2026-05-04 23:45 | 50.04045 | 8.55127 | 356 ft | 21 kts | 69° |
| 2026-05-04 23:45 | 50.04099 | 8.55349 | 356 ft | 22 kts | 69° |
| 2026-05-04 23:45 | 50.04155 | 8.55576 | 358 ft | 23 kts | 69° |
| 2026-05-04 23:46 | 50.04210 | 8.55805 | 353 ft | 22 kts | 69° |
| 2026-05-04 23:46 | 50.04286 | 8.55950 | 357 ft | 13 kts | 358° |
| 2026-05-04 23:46 | 50.04376 | 8.55928 | 356 ft | 13 kts | 4° |
| 2026-05-04 23:46 | 50.04454 | 8.55955 | 356 ft | 10 kts | 17° |
| 2026-05-04 23:47 | 50.04521 | 8.55990 | 353 ft | 10 kts | 26° |
| 2026-05-04 23:47 | 50.04563 | 8.56066 | 356 ft | 8 kts | 45° |
| 2026-05-04 23:47 | 50.04614 | 8.56075 | 357 ft | 8 kts | 346° |
| 2026-05-04 23:47 | 50.04666 | 8.56048 | 357 ft | 8 kts | 340° |
| 2026-05-04 23:48 | 50.04675 | 8.56043 | 359 ft | 0 kts | 340° |